sensor_id;sensor_type;location;lat;lon;timestamp;P1;durP1;ratioP1;P2;durP2;ratioP2
50483;SDS011;36409;52.168;20.878;2022-10-22T00:00:01;31.77;;;20.07;;
50483;SDS011;36409;52.168;20.878;2022-10-22T00:02:52;30.43;;;20.67;;
50483;SDS011;36409;52.168;20.878;2022-10-22T00:05:21;36.17;;;21.30;;
50483;SDS011;36409;52.168;20.878;2022-10-22T00:07:51;31.30;;;20.60;;
50483;SDS011;36409;52.168;20.878;2022-10-22T00:10:20;32.30;;;20.25;;
50483;SDS011;36409;52.168;20.878;2022-10-22T00:12:49;33.27;;;21.60;;
50483;SDS011;36409;52.168;20.878;2022-10-22T00:15:18;32.33;;;21.40;;
50483;SDS011;36409;52.168;20.878;2022-10-22T00:17:46;33.70;;;20.53;;
50483;SDS011;36409;52.168;20.878;2022-10-22T00:20:15;33.97;;;22.00;;
50483;SDS011;36409;52.168;20.878;2022-10-22T00:22:47;30.00;;;20.20;;
50483;SDS011;36409;52.168;20.878;2022-10-22T00:25:22;38.17;;;21.90;;
50483;SDS011;36409;52.168;20.878;2022-10-22T00:27:51;31.85;;;20.40;;
50483;SDS011;36409;52.168;20.878;2022-10-22T00:30:20;30.33;;;19.37;;
50483;SDS011;36409;52.168;20.878;2022-10-22T00:32:49;30.10;;;19.40;;
50483;SDS011;36409;52.168;20.878;2022-10-22T00:35:17;35.00;;;20.77;;
50483;SDS011;36409;52.168;20.878;2022-10-22T00:37:46;33.13;;;19.57;;
50483;SDS011;36409;52.168;20.878;2022-10-22T00:40:15;31.03;;;20.67;;
50483;SDS011;36409;52.168;20.878;2022-10-22T00:42:44;31.17;;;20.67;;
50483;SDS011;36409;52.168;20.878;2022-10-22T00:45:19;35.70;;;19.47;;
50483;SDS011;36409;52.168;20.878;2022-10-22T00:47:55;32.80;;;19.13;;
50483;SDS011;36409;52.168;20.878;2022-10-22T00:50:27;37.70;;;20.90;;
50483;SDS011;36409;52.168;20.878;2022-10-22T00:53:00;33.63;;;20.00;;
50483;SDS011;36409;52.168;20.878;2022-10-22T00:55:30;32.93;;;19.93;;
50483;SDS011;36409;52.168;20.878;2022-10-22T00:58:03;30.20;;;19.77;;
50483;SDS011;36409;52.168;20.878;2022-10-22T01:00:37;29.33;;;19.40;;
50483;SDS011;36409;52.168;20.878;2022-10-22T01:03:10;29.73;;;17.83;;
50483;SDS011;36409;52.168;20.878;2022-10-22T01:05:42;33.03;;;20.13;;
50483;SDS011;36409;52.168;20.878;2022-10-22T01:08:16;26.90;;;18.42;;
50483;SDS011;36409;52.168;20.878;2022-10-22T01:10:59;29.90;;;17.90;;
50483;SDS011;36409;52.168;20.878;2022-10-22T01:13:38;31.03;;;19.27;;
50483;SDS011;36409;52.168;20.878;2022-10-22T01:16:18;29.57;;;18.80;;
50483;SDS011;36409;52.168;20.878;2022-10-22T01:18:53;30.87;;;19.83;;
50483;SDS011;36409;52.168;20.878;2022-10-22T01:21:31;32.40;;;19.00;;
50483;SDS011;36409;52.168;20.878;2022-10-22T01:27:21;30.47;;;18.83;;
50483;SDS011;36409;52.168;20.878;2022-10-22T01:29:57;34.87;;;18.73;;
50483;SDS011;36409;52.168;20.878;2022-10-22T01:32:30;28.83;;;18.60;;
50483;SDS011;36409;52.168;20.878;2022-10-22T01:35:04;28.97;;;18.33;;
50483;SDS011;36409;52.168;20.878;2022-10-22T01:37:38;27.45;;;17.87;;
50483;SDS011;36409;52.168;20.878;2022-10-22T01:40:12;30.83;;;18.73;;
50483;SDS011;36409;52.168;20.878;2022-10-22T01:42:55;29.70;;;19.10;;
50483;SDS011;36409;52.168;20.878;2022-10-22T01:45:25;28.60;;;20.27;;
50483;SDS011;36409;52.168;20.878;2022-10-22T01:47:58;29.60;;;18.85;;
50483;SDS011;36409;52.168;20.878;2022-10-22T01:50:42;24.80;;;17.60;;
50483;SDS011;36409;52.168;20.878;2022-10-22T01:53:29;33.67;;;20.13;;
50483;SDS011;36409;52.168;20.878;2022-10-22T01:56:12;34.57;;;19.10;;
50483;SDS011;36409;52.168;20.878;2022-10-22T01:59:03;29.03;;;18.90;;
50483;SDS011;36409;52.168;20.878;2022-10-22T02:01:45;27.63;;;19.10;;
50483;SDS011;36409;52.168;20.878;2022-10-22T02:04:21;25.87;;;17.40;;
50483;SDS011;36409;52.168;20.878;2022-10-22T02:06:55;28.60;;;17.73;;
50483;SDS011;36409;52.168;20.878;2022-10-22T02:09:27;31.37;;;19.45;;
50483;SDS011;36409;52.168;20.878;2022-10-22T02:11:58;25.43;;;18.00;;
50483;SDS011;36409;52.168;20.878;2022-10-22T02:14:30;26.63;;;18.80;;
50483;SDS011;36409;52.168;20.878;2022-10-22T02:17:00;29.00;;;18.27;;
50483;SDS011;36409;52.168;20.878;2022-10-22T02:19:33;27.03;;;18.10;;
50483;SDS011;36409;52.168;20.878;2022-10-22T02:22:11;26.73;;;18.87;;
50483;SDS011;36409;52.168;20.878;2022-10-22T02:24:42;27.03;;;17.97;;
50483;SDS011;36409;52.168;20.878;2022-10-22T02:27:14;30.87;;;18.83;;
50483;SDS011;36409;52.168;20.878;2022-10-22T02:29:56;28.20;;;18.47;;
50483;SDS011;36409;52.168;20.878;2022-10-22T02:32:33;29.13;;;19.40;;
50483;SDS011;36409;52.168;20.878;2022-10-22T02:35:10;27.97;;;19.40;;
50483;SDS011;36409;52.168;20.878;2022-10-22T02:37:41;30.90;;;20.33;;
50483;SDS011;36409;52.168;20.878;2022-10-22T02:40:11;29.60;;;19.50;;
50483;SDS011;36409;52.168;20.878;2022-10-22T02:42:40;27.40;;;19.97;;
50483;SDS011;36409;52.168;20.878;2022-10-22T02:45:12;31.17;;;20.03;;
50483;SDS011;36409;52.168;20.878;2022-10-22T02:47:42;31.37;;;20.33;;
50483;SDS011;36409;52.168;20.878;2022-10-22T02:50:10;32.17;;;19.67;;
50483;SDS011;36409;52.168;20.878;2022-10-22T02:52:42;33.93;;;21.10;;
50483;SDS011;36409;52.168;20.878;2022-10-22T02:55:10;32.53;;;20.57;;
50483;SDS011;36409;52.168;20.878;2022-10-22T02:57:41;31.30;;;20.80;;
50483;SDS011;36409;52.168;20.878;2022-10-22T03:00:12;29.90;;;20.17;;
50483;SDS011;36409;52.168;20.878;2022-10-22T03:02:42;27.80;;;20.30;;
50483;SDS011;36409;52.168;20.878;2022-10-22T03:05:11;31.47;;;21.03;;
50483;SDS011;36409;52.168;20.878;2022-10-22T03:07:41;35.37;;;21.13;;
50483;SDS011;36409;52.168;20.878;2022-10-22T03:10:10;31.20;;;21.47;;
50483;SDS011;36409;52.168;20.878;2022-10-22T03:12:41;28.23;;;19.90;;
50483;SDS011;36409;52.168;20.878;2022-10-22T03:15:10;30.23;;;20.13;;
50483;SDS011;36409;52.168;20.878;2022-10-22T03:17:38;35.10;;;19.80;;
50483;SDS011;36409;52.168;20.878;2022-10-22T03:20:09;29.40;;;20.70;;
50483;SDS011;36409;52.168;20.878;2022-10-22T03:22:38;27.50;;;19.73;;
50483;SDS011;36409;52.168;20.878;2022-10-22T03:25:09;30.77;;;20.20;;
50483;SDS011;36409;52.168;20.878;2022-10-22T03:27:44;28.37;;;19.53;;
50483;SDS011;36409;52.168;20.878;2022-10-22T03:30:15;27.77;;;19.10;;
50483;SDS011;36409;52.168;20.878;2022-10-22T03:32:44;28.80;;;19.90;;
50483;SDS011;36409;52.168;20.878;2022-10-22T03:35:13;28.63;;;19.63;;
50483;SDS011;36409;52.168;20.878;2022-10-22T03:37:42;30.97;;;20.37;;
50483;SDS011;36409;52.168;20.878;2022-10-22T03:40:13;29.37;;;19.50;;
50483;SDS011;36409;52.168;20.878;2022-10-22T03:42:46;28.47;;;19.63;;
50483;SDS011;36409;52.168;20.878;2022-10-22T03:45:15;26.57;;;18.97;;
50483;SDS011;36409;52.168;20.878;2022-10-22T03:47:43;32.30;;;19.90;;
50483;SDS011;36409;52.168;20.878;2022-10-22T03:50:19;27.13;;;18.77;;
50483;SDS011;36409;52.168;20.878;2022-10-22T03:52:49;27.77;;;18.70;;
50483;SDS011;36409;52.168;20.878;2022-10-22T03:55:20;30.83;;;18.90;;
50483;SDS011;36409;52.168;20.878;2022-10-22T03:57:49;24.83;;;17.37;;
50483;SDS011;36409;52.168;20.878;2022-10-22T04:00:20;26.73;;;18.70;;
50483;SDS011;36409;52.168;20.878;2022-10-22T04:02:49;28.77;;;18.43;;
50483;SDS011;36409;52.168;20.878;2022-10-22T04:05:18;25.83;;;17.83;;
50483;SDS011;36409;52.168;20.878;2022-10-22T04:07:46;25.57;;;16.77;;
50483;SDS011;36409;52.168;20.878;2022-10-22T04:10:15;23.60;;;16.77;;
50483;SDS011;36409;52.168;20.878;2022-10-22T04:12:46;24.70;;;16.70;;
50483;SDS011;36409;52.168;20.878;2022-10-22T04:15:15;22.77;;;16.80;;
50483;SDS011;36409;52.168;20.878;2022-10-22T04:17:44;28.77;;;17.97;;
50483;SDS011;36409;52.168;20.878;2022-10-22T04:20:13;27.37;;;18.63;;
50483;SDS011;36409;52.168;20.878;2022-10-22T04:22:44;25.10;;;17.65;;
50483;SDS011;36409;52.168;20.878;2022-10-22T04:25:15;23.87;;;17.07;;
50483;SDS011;36409;52.168;20.878;2022-10-22T04:27:45;24.93;;;18.00;;
50483;SDS011;36409;52.168;20.878;2022-10-22T04:30:18;27.70;;;17.20;;
50483;SDS011;36409;52.168;20.878;2022-10-22T04:32:46;24.05;;;17.00;;
50483;SDS011;36409;52.168;20.878;2022-10-22T04:35:15;28.10;;;17.97;;
50483;SDS011;36409;52.168;20.878;2022-10-22T04:37:44;27.00;;;16.73;;
50483;SDS011;36409;52.168;20.878;2022-10-22T04:40:13;23.73;;;17.37;;
50483;SDS011;36409;52.168;20.878;2022-10-22T04:42:47;25.80;;;17.93;;
50483;SDS011;36409;52.168;20.878;2022-10-22T04:45:16;26.73;;;17.13;;
50483;SDS011;36409;52.168;20.878;2022-10-22T04:47:48;27.57;;;18.30;;
50483;SDS011;36409;52.168;20.878;2022-10-22T04:50:17;26.80;;;17.15;;
50483;SDS011;36409;52.168;20.878;2022-10-22T04:52:46;25.30;;;17.80;;
50483;SDS011;36409;52.168;20.878;2022-10-22T04:55:15;22.73;;;17.00;;
50483;SDS011;36409;52.168;20.878;2022-10-22T05:00:17;25.57;;;16.63;;
50483;SDS011;36409;52.168;20.878;2022-10-22T05:02:50;24.43;;;17.67;;
50483;SDS011;36409;52.168;20.878;2022-10-22T05:05:21;26.00;;;17.75;;
50483;SDS011;36409;52.168;20.878;2022-10-22T05:07:50;24.17;;;17.50;;
50483;SDS011;36409;52.168;20.878;2022-10-22T05:10:19;26.50;;;19.00;;
50483;SDS011;36409;52.168;20.878;2022-10-22T05:12:54;26.67;;;17.73;;
50483;SDS011;36409;52.168;20.878;2022-10-22T05:15:26;27.13;;;17.30;;
50483;SDS011;36409;52.168;20.878;2022-10-22T05:17:58;27.67;;;17.90;;
50483;SDS011;36409;52.168;20.878;2022-10-22T05:20:30;23.17;;;17.57;;
50483;SDS011;36409;52.168;20.878;2022-10-22T05:23:00;28.80;;;18.40;;
50483;SDS011;36409;52.168;20.878;2022-10-22T05:25:31;26.67;;;17.30;;
50483;SDS011;36409;52.168;20.878;2022-10-22T05:28:04;24.67;;;17.80;;
50483;SDS011;36409;52.168;20.878;2022-10-22T05:30:33;24.60;;;18.03;;
50483;SDS011;36409;52.168;20.878;2022-10-22T05:33:07;25.33;;;17.17;;
50483;SDS011;36409;52.168;20.878;2022-10-22T05:35:38;31.20;;;19.57;;
50483;SDS011;36409;52.168;20.878;2022-10-22T05:38:13;38.17;;;22.70;;
50483;SDS011;36409;52.168;20.878;2022-10-22T05:40:58;26.95;;;18.45;;
50483;SDS011;36409;52.168;20.878;2022-10-22T05:43:32;22.80;;;16.50;;
50483;SDS011;36409;52.168;20.878;2022-10-22T05:46:03;27.50;;;18.30;;
50483;SDS011;36409;52.168;20.878;2022-10-22T05:48:35;28.35;;;18.40;;
50483;SDS011;36409;52.168;20.878;2022-10-22T05:51:06;28.53;;;17.90;;
50483;SDS011;36409;52.168;20.878;2022-10-22T05:53:40;34.23;;;20.83;;
50483;SDS011;36409;52.168;20.878;2022-10-22T05:56:11;42.62;;;22.73;;
50483;SDS011;36409;52.168;20.878;2022-10-22T05:58:41;31.17;;;20.30;;
50483;SDS011;36409;52.168;20.878;2022-10-22T06:01:12;28.93;;;20.20;;
50483;SDS011;36409;52.168;20.878;2022-10-22T06:03:48;36.80;;;21.83;;
50483;SDS011;36409;52.168;20.878;2022-10-22T06:06:24;43.43;;;22.33;;
50483;SDS011;36409;52.168;20.878;2022-10-22T06:08:58;33.03;;;19.40;;
50483;SDS011;36409;52.168;20.878;2022-10-22T06:11:33;29.83;;;19.43;;
50483;SDS011;36409;52.168;20.878;2022-10-22T06:14:12;33.43;;;19.83;;
50483;SDS011;36409;52.168;20.878;2022-10-22T06:16:47;28.37;;;19.80;;
50483;SDS011;36409;52.168;20.878;2022-10-22T06:19:21;33.43;;;19.57;;
50483;SDS011;36409;52.168;20.878;2022-10-22T06:21:55;27.50;;;18.50;;
50483;SDS011;36409;52.168;20.878;2022-10-22T06:24:25;27.77;;;18.30;;
50483;SDS011;36409;52.168;20.878;2022-10-22T06:26:54;27.40;;;18.07;;
50483;SDS011;36409;52.168;20.878;2022-10-22T06:29:26;27.67;;;18.47;;
50483;SDS011;36409;52.168;20.878;2022-10-22T06:31:56;27.30;;;18.50;;
50483;SDS011;36409;52.168;20.878;2022-10-22T06:34:27;25.07;;;17.00;;
50483;SDS011;36409;52.168;20.878;2022-10-22T06:36:57;28.23;;;18.17;;
50483;SDS011;36409;52.168;20.878;2022-10-22T06:39:26;24.80;;;17.00;;
50483;SDS011;36409;52.168;20.878;2022-10-22T06:41:58;26.37;;;17.17;;
50483;SDS011;36409;52.168;20.878;2022-10-22T06:44:29;28.83;;;17.67;;
50483;SDS011;36409;52.168;20.878;2022-10-22T06:46:58;23.77;;;17.87;;
50483;SDS011;36409;52.168;20.878;2022-10-22T06:49:31;31.17;;;18.17;;
50483;SDS011;36409;52.168;20.878;2022-10-22T06:52:02;28.17;;;17.87;;
50483;SDS011;36409;52.168;20.878;2022-10-22T06:54:31;22.93;;;16.63;;
50483;SDS011;36409;52.168;20.878;2022-10-22T06:57:00;26.43;;;17.17;;
50483;SDS011;36409;52.168;20.878;2022-10-22T06:59:29;20.30;;;15.47;;
50483;SDS011;36409;52.168;20.878;2022-10-22T07:01:58;22.30;;;15.90;;
50483;SDS011;36409;52.168;20.878;2022-10-22T07:04:27;24.60;;;16.27;;
50483;SDS011;36409;52.168;20.878;2022-10-22T07:06:59;26.77;;;16.43;;
50483;SDS011;36409;52.168;20.878;2022-10-22T07:09:28;25.50;;;16.40;;
50483;SDS011;36409;52.168;20.878;2022-10-22T07:11:57;24.97;;;16.37;;
50483;SDS011;36409;52.168;20.878;2022-10-22T07:14:26;22.87;;;16.07;;
50483;SDS011;36409;52.168;20.878;2022-10-22T07:17:00;23.13;;;16.03;;
50483;SDS011;36409;52.168;20.878;2022-10-22T07:19:32;22.57;;;15.00;;
50483;SDS011;36409;52.168;20.878;2022-10-22T07:22:04;23.77;;;15.43;;
50483;SDS011;36409;52.168;20.878;2022-10-22T07:24:35;25.60;;;16.25;;
50483;SDS011;36409;52.168;20.878;2022-10-22T07:27:04;22.37;;;14.80;;
50483;SDS011;36409;52.168;20.878;2022-10-22T07:29:38;21.97;;;14.85;;
50483;SDS011;36409;52.168;20.878;2022-10-22T07:32:15;22.50;;;15.50;;
50483;SDS011;36409;52.168;20.878;2022-10-22T07:34:51;25.80;;;15.83;;
50483;SDS011;36409;52.168;20.878;2022-10-22T07:37:20;24.57;;;14.87;;
50483;SDS011;36409;52.168;20.878;2022-10-22T07:39:50;24.20;;;16.07;;
50483;SDS011;36409;52.168;20.878;2022-10-22T07:42:19;23.90;;;14.93;;
50483;SDS011;36409;52.168;20.878;2022-10-22T07:44:52;20.90;;;15.23;;
50483;SDS011;36409;52.168;20.878;2022-10-22T07:47:21;23.77;;;16.10;;
50483;SDS011;36409;52.168;20.878;2022-10-22T07:49:50;22.97;;;16.07;;
50483;SDS011;36409;52.168;20.878;2022-10-22T07:52:19;21.47;;;16.07;;
50483;SDS011;36409;52.168;20.878;2022-10-22T07:54:47;25.10;;;16.95;;
50483;SDS011;36409;52.168;20.878;2022-10-22T07:57:16;25.43;;;16.47;;
50483;SDS011;36409;52.168;20.878;2022-10-22T07:59:53;21.57;;;16.03;;
50483;SDS011;36409;52.168;20.878;2022-10-22T08:02:27;22.37;;;15.70;;
50483;SDS011;36409;52.168;20.878;2022-10-22T08:05:12;25.43;;;17.33;;
50483;SDS011;36409;52.168;20.878;2022-10-22T08:07:43;22.47;;;16.53;;
50483;SDS011;36409;52.168;20.878;2022-10-22T08:10:14;27.57;;;16.87;;
50483;SDS011;36409;52.168;20.878;2022-10-22T08:12:43;20.83;;;15.63;;
50483;SDS011;36409;52.168;20.878;2022-10-22T08:15:12;22.00;;;15.90;;
50483;SDS011;36409;52.168;20.878;2022-10-22T08:17:44;24.27;;;15.93;;
50483;SDS011;36409;52.168;20.878;2022-10-22T08:20:12;24.00;;;16.53;;
50483;SDS011;36409;52.168;20.878;2022-10-22T08:22:43;20.50;;;14.60;;
50483;SDS011;36409;52.168;20.878;2022-10-22T08:25:13;23.80;;;15.87;;
50483;SDS011;36409;52.168;20.878;2022-10-22T08:27:44;27.33;;;16.20;;
50483;SDS011;36409;52.168;20.878;2022-10-22T08:30:14;23.13;;;15.10;;
50483;SDS011;36409;52.168;20.878;2022-10-22T08:32:43;19.53;;;14.40;;
50483;SDS011;36409;52.168;20.878;2022-10-22T08:35:18;21.33;;;14.93;;
50483;SDS011;36409;52.168;20.878;2022-10-22T08:37:47;20.33;;;14.50;;
50483;SDS011;36409;52.168;20.878;2022-10-22T08:40:20;24.93;;;14.97;;
50483;SDS011;36409;52.168;20.878;2022-10-22T08:43:11;21.97;;;15.23;;
50483;SDS011;36409;52.168;20.878;2022-10-22T08:46:20;23.47;;;15.67;;
50483;SDS011;36409;52.168;20.878;2022-10-22T08:49:16;23.17;;;14.93;;
50483;SDS011;36409;52.168;20.878;2022-10-22T08:51:48;19.77;;;14.47;;
50483;SDS011;36409;52.168;20.878;2022-10-22T08:54:20;21.63;;;15.20;;
50483;SDS011;36409;52.168;20.878;2022-10-22T08:57:05;22.53;;;15.37;;
50483;SDS011;36409;52.168;20.878;2022-10-22T08:59:47;23.13;;;15.47;;
50483;SDS011;36409;52.168;20.878;2022-10-22T09:02:29;26.30;;;16.05;;
50483;SDS011;36409;52.168;20.878;2022-10-22T09:08:00;28.90;;;18.40;;
50483;SDS011;36409;52.168;20.878;2022-10-22T09:10:34;32.23;;;21.37;;
50483;SDS011;36409;52.168;20.878;2022-10-22T09:13:04;24.50;;;16.27;;
50483;SDS011;36409;52.168;20.878;2022-10-22T09:15:38;23.42;;;15.63;;
50483;SDS011;36409;52.168;20.878;2022-10-22T09:18:21;25.17;;;15.90;;
50483;SDS011;36409;52.168;20.878;2022-10-22T09:21:03;26.37;;;16.90;;
50483;SDS011;36409;52.168;20.878;2022-10-22T09:23:46;24.90;;;17.03;;
50483;SDS011;36409;52.168;20.878;2022-10-22T09:29:34;30.03;;;18.47;;
50483;SDS011;36409;52.168;20.878;2022-10-22T09:32:20;29.93;;;17.30;;
50483;SDS011;36409;52.168;20.878;2022-10-22T09:34:53;25.70;;;17.40;;
50483;SDS011;36409;52.168;20.878;2022-10-22T09:37:25;30.20;;;20.65;;
50483;SDS011;36409;52.168;20.878;2022-10-22T09:39:56;34.27;;;18.93;;
50483;SDS011;36409;52.168;20.878;2022-10-22T09:42:32;28.77;;;18.33;;
50483;SDS011;36409;52.168;20.878;2022-10-22T09:45:01;30.77;;;19.47;;
50483;SDS011;36409;52.168;20.878;2022-10-22T09:47:36;38.00;;;24.47;;
50483;SDS011;36409;52.168;20.878;2022-10-22T09:50:27;49.07;;;31.33;;
50483;SDS011;36409;52.168;20.878;2022-10-22T09:53:10;40.20;;;26.93;;
50483;SDS011;36409;52.168;20.878;2022-10-22T09:55:48;28.30;;;19.47;;
50483;SDS011;36409;52.168;20.878;2022-10-22T09:58:22;34.33;;;18.30;;
50483;SDS011;36409;52.168;20.878;2022-10-22T10:00:56;27.23;;;17.33;;
50483;SDS011;36409;52.168;20.878;2022-10-22T10:03:28;31.87;;;18.93;;
50483;SDS011;36409;52.168;20.878;2022-10-22T10:06:00;25.93;;;17.47;;
50483;SDS011;36409;52.168;20.878;2022-10-22T10:08:33;28.23;;;18.50;;
50483;SDS011;36409;52.168;20.878;2022-10-22T10:11:04;25.77;;;17.20;;
50483;SDS011;36409;52.168;20.878;2022-10-22T10:13:40;28.47;;;17.93;;
50483;SDS011;36409;52.168;20.878;2022-10-22T10:16:40;24.83;;;16.87;;
50483;SDS011;36409;52.168;20.878;2022-10-22T10:19:23;24.90;;;17.00;;
50483;SDS011;36409;52.168;20.878;2022-10-22T10:22:06;24.97;;;17.30;;
50483;SDS011;36409;52.168;20.878;2022-10-22T10:24:53;27.23;;;17.57;;
50483;SDS011;36409;52.168;20.878;2022-10-22T10:27:32;29.70;;;18.67;;
50483;SDS011;36409;52.168;20.878;2022-10-22T10:30:13;28.37;;;18.90;;
50483;SDS011;36409;52.168;20.878;2022-10-22T10:32:57;30.67;;;17.50;;
50483;SDS011;36409;52.168;20.878;2022-10-22T10:35:44;30.08;;;17.95;;
50483;SDS011;36409;52.168;20.878;2022-10-22T10:38:25;29.20;;;18.27;;
50483;SDS011;36409;52.168;20.878;2022-10-22T10:41:15;27.23;;;18.40;;
50483;SDS011;36409;52.168;20.878;2022-10-22T10:44:01;31.53;;;17.03;;
50483;SDS011;36409;52.168;20.878;2022-10-22T10:46:45;27.97;;;17.00;;
50483;SDS011;36409;52.168;20.878;2022-10-22T10:49:25;26.30;;;17.10;;
50483;SDS011;36409;52.168;20.878;2022-10-22T10:51:59;25.70;;;16.60;;
50483;SDS011;36409;52.168;20.878;2022-10-22T10:54:37;24.53;;;18.30;;
50483;SDS011;36409;52.168;20.878;2022-10-22T10:57:18;27.70;;;18.07;;
50483;SDS011;36409;52.168;20.878;2022-10-22T11:00:05;28.80;;;16.17;;
50483;SDS011;36409;52.168;20.878;2022-10-22T11:05:47;28.97;;;17.57;;
50483;SDS011;36409;52.168;20.878;2022-10-22T11:08:21;26.60;;;17.67;;
50483;SDS011;36409;52.168;20.878;2022-10-22T11:10:56;28.27;;;16.80;;
50483;SDS011;36409;52.168;20.878;2022-10-22T11:13:35;27.53;;;18.03;;
50483;SDS011;36409;52.168;20.878;2022-10-22T11:16:11;30.67;;;17.93;;
50483;SDS011;36409;52.168;20.878;2022-10-22T11:18:51;24.60;;;16.10;;
50483;SDS011;36409;52.168;20.878;2022-10-22T11:21:33;25.70;;;17.33;;
50483;SDS011;36409;52.168;20.878;2022-10-22T11:24:14;25.13;;;17.07;;
50483;SDS011;36409;52.168;20.878;2022-10-22T11:26:50;28.67;;;16.47;;
50483;SDS011;36409;52.168;20.878;2022-10-22T11:29:29;26.70;;;17.83;;
50483;SDS011;36409;52.168;20.878;2022-10-22T11:32:07;26.57;;;17.63;;
50483;SDS011;36409;52.168;20.878;2022-10-22T11:34:52;26.83;;;18.67;;
50483;SDS011;36409;52.168;20.878;2022-10-22T11:37:23;27.53;;;18.40;;
50483;SDS011;36409;52.168;20.878;2022-10-22T11:40:04;28.00;;;18.60;;
50483;SDS011;36409;52.168;20.878;2022-10-22T11:48:05;27.67;;;17.97;;
50483;SDS011;36409;52.168;20.878;2022-10-22T11:50:43;32.07;;;19.77;;
50483;SDS011;36409;52.168;20.878;2022-10-22T11:53:27;27.93;;;18.47;;
50483;SDS011;36409;52.168;20.878;2022-10-22T11:56:03;28.60;;;18.40;;
50483;SDS011;36409;52.168;20.878;2022-10-22T11:58:50;27.67;;;18.77;;
50483;SDS011;36409;52.168;20.878;2022-10-22T12:01:27;30.20;;;19.27;;
50483;SDS011;36409;52.168;20.878;2022-10-22T12:04:18;29.70;;;19.10;;
50483;SDS011;36409;52.168;20.878;2022-10-22T12:06:56;29.90;;;19.43;;
50483;SDS011;36409;52.168;20.878;2022-10-22T12:09:39;27.67;;;18.13;;
50483;SDS011;36409;52.168;20.878;2022-10-22T12:12:24;27.33;;;19.20;;
50483;SDS011;36409;52.168;20.878;2022-10-22T12:17:59;27.67;;;18.93;;
50483;SDS011;36409;52.168;20.878;2022-10-22T12:20:30;30.47;;;19.23;;
50483;SDS011;36409;52.168;20.878;2022-10-22T12:22:59;29.67;;;19.57;;
50483;SDS011;36409;52.168;20.878;2022-10-22T12:25:29;30.70;;;19.60;;
50483;SDS011;36409;52.168;20.878;2022-10-22T12:28:09;30.17;;;19.13;;
50483;SDS011;36409;52.168;20.878;2022-10-22T12:30:43;32.23;;;19.90;;
50483;SDS011;36409;52.168;20.878;2022-10-22T12:33:17;28.93;;;18.97;;
50483;SDS011;36409;52.168;20.878;2022-10-22T12:35:53;32.80;;;20.17;;
50483;SDS011;36409;52.168;20.878;2022-10-22T12:38:23;31.37;;;19.73;;
50483;SDS011;36409;52.168;20.878;2022-10-22T12:40:54;33.73;;;18.73;;
50483;SDS011;36409;52.168;20.878;2022-10-22T12:43:24;32.40;;;20.40;;
50483;SDS011;36409;52.168;20.878;2022-10-22T12:45:57;29.52;;;18.27;;
50483;SDS011;36409;52.168;20.878;2022-10-22T12:48:27;29.37;;;19.27;;
50483;SDS011;36409;52.168;20.878;2022-10-22T12:51:03;32.60;;;20.23;;
50483;SDS011;36409;52.168;20.878;2022-10-22T12:53:36;32.73;;;20.30;;
50483;SDS011;36409;52.168;20.878;2022-10-22T12:56:10;31.00;;;20.67;;
50483;SDS011;36409;52.168;20.878;2022-10-22T12:58:45;34.73;;;21.57;;
50483;SDS011;36409;52.168;20.878;2022-10-22T13:04:18;29.80;;;19.67;;
50483;SDS011;36409;52.168;20.878;2022-10-22T13:07:13;36.23;;;21.37;;
50483;SDS011;36409;52.168;20.878;2022-10-22T13:09:56;32.50;;;19.90;;
50483;SDS011;36409;52.168;20.878;2022-10-22T13:12:27;30.13;;;20.70;;
50483;SDS011;36409;52.168;20.878;2022-10-22T13:17:50;30.60;;;20.25;;
50483;SDS011;36409;52.168;20.878;2022-10-22T13:20:30;32.47;;;21.30;;
50483;SDS011;36409;52.168;20.878;2022-10-22T13:23:00;33.07;;;20.90;;
50483;SDS011;36409;52.168;20.878;2022-10-22T13:25:31;35.00;;;21.95;;
50483;SDS011;36409;52.168;20.878;2022-10-22T13:28:16;36.10;;;21.47;;
50483;SDS011;36409;52.168;20.878;2022-10-22T13:30:52;35.40;;;22.50;;
50483;SDS011;36409;52.168;20.878;2022-10-22T13:33:23;32.83;;;21.83;;
50483;SDS011;36409;52.168;20.878;2022-10-22T13:35:56;34.77;;;21.73;;
50483;SDS011;36409;52.168;20.878;2022-10-22T13:38:35;32.60;;;22.30;;
50483;SDS011;36409;52.168;20.878;2022-10-22T13:46:27;36.13;;;23.20;;
50483;SDS011;36409;52.168;20.878;2022-10-22T13:49:02;37.17;;;22.90;;
50483;SDS011;36409;52.168;20.878;2022-10-22T13:51:34;34.57;;;23.53;;
50483;SDS011;36409;52.168;20.878;2022-10-22T13:54:05;37.40;;;22.13;;
50483;SDS011;36409;52.168;20.878;2022-10-22T13:56:40;36.97;;;22.83;;
50483;SDS011;36409;52.168;20.878;2022-10-22T13:59:11;33.90;;;21.77;;
50483;SDS011;36409;52.168;20.878;2022-10-22T14:01:46;37.07;;;21.80;;
50483;SDS011;36409;52.168;20.878;2022-10-22T14:04:21;35.43;;;23.30;;
50483;SDS011;36409;52.168;20.878;2022-10-22T14:06:53;36.03;;;22.80;;
50483;SDS011;36409;52.168;20.878;2022-10-22T14:09:27;42.73;;;23.03;;
50483;SDS011;36409;52.168;20.878;2022-10-22T14:11:55;40.60;;;24.63;;
50483;SDS011;36409;52.168;20.878;2022-10-22T14:14:25;43.43;;;25.13;;
50483;SDS011;36409;52.168;20.878;2022-10-22T14:16:54;38.07;;;24.77;;
50483;SDS011;36409;52.168;20.878;2022-10-22T14:19:23;37.47;;;24.70;;
50483;SDS011;36409;52.168;20.878;2022-10-22T14:27:57;36.97;;;24.83;;
50483;SDS011;36409;52.168;20.878;2022-10-22T14:30:45;40.63;;;24.53;;
50483;SDS011;36409;52.168;20.878;2022-10-22T14:36:22;46.60;;;26.57;;
50483;SDS011;36409;52.168;20.878;2022-10-22T14:39:22;41.57;;;26.07;;
50483;SDS011;36409;52.168;20.878;2022-10-22T14:42:09;42.23;;;24.27;;
50483;SDS011;36409;52.168;20.878;2022-10-22T14:44:56;43.47;;;24.87;;
50483;SDS011;36409;52.168;20.878;2022-10-22T14:47:58;37.37;;;24.63;;
50483;SDS011;36409;52.168;20.878;2022-10-22T14:50:43;41.10;;;25.23;;
